Time;durP1;ratioP1;P1;durP2;ratioP2;P2;SDS_P1;SDS_P2;PMS_P1;PMS_P2;Temp;Humidity;BMP_temperature;BMP_pressure;BME280_temperature;BME280_humidity;BME280_pressure;Samples;Min_cycle;Max_cycle;Signal;HPM_P1;HPM_P2
2022/09/20 00:00:16;;;;;;;2.67;0.20;;;;;;;;;;10350059;28;20068;-60
2022/09/20 00:05:18;;;;;;;5.80;0.20;;;;;;;;;;10359079;28;20136;-60
2022/09/20 00:10:21;;;;;;;2.13;0.20;;;;;;;;;;10357930;28;20045;-62
2022/09/20 00:15:24;;;;;;;2.63;0.30;;;;;;;;;;10340138;28;20133;-62
2022/09/20 00:20:26;;;;;;;2.13;0.25;;;;;;;;;;10345240;28;20620;-62
2022/09/20 00:25:28;;;;;;;3.22;0.22;;;;;;;;;;10351931;28;20056;-62
2022/09/20 00:30:32;;;;;;;4.95;0.40;;;;;;;;;;10347158;28;20089;-61
2022/09/20 00:35:34;;;;;;;3.25;0.20;;;;;;;;;;10343707;28;20552;-61
2022/09/20 00:40:36;;;;;;;4.78;0.38;;;;;;;;;;10347395;28;20128;-63
2022/09/20 00:45:38;;;;;;;2.97;0.85;;;;;;;;;;10356220;28;20050;-63
2022/09/20 00:50:45;;;;;;;3.53;0.45;;;;;;;;;;10345876;28;20045;-61
2022/09/20 00:55:49;;;;;;;3.43;0.37;;;;;;;;;;10357710;28;20049;-61
2022/09/20 01:00:53;;;;;;;3.30;0.55;;;;;;;;;;10355518;28;20081;-62
2022/09/20 01:05:56;;;;;;;6.43;0.40;;;;;;;;;;10348487;28;20046;-62
2022/09/20 01:10:58;;;;;;;7.10;0.77;;;;;;;;;;10362730;28;20518;-63
2022/09/20 01:16:00;;;;;;;5.53;0.75;;;;;;;;;;10348702;28;20128;-64
2022/09/20 01:21:03;;;;;;;5.63;0.77;;;;;;;;;;10352922;28;20495;-63
2022/09/20 01:26:24;;;;;;;4.30;0.63;;;;;;;;;;10348494;28;20785;-63
2022/09/20 01:31:30;;;;;;;3.60;0.93;;;;;;;;;;10341284;28;20411;-63
2022/09/20 01:36:36;;;;;;;5.57;0.45;;;;;;;;;;10348364;28;20046;-63
2022/09/20 01:41:38;;;;;;;6.95;0.60;;;;;;;;;;10344571;28;20128;-64
2022/09/20 01:46:41;;;;;;;1.15;0.50;;;;;;;;;;10356445;28;20052;-62
2022/09/20 01:52:03;;;;;;;2.72;0.40;;;;;;;;;;10349538;28;20086;-62
2022/09/20 01:57:30;;;;;;;3.55;0.50;;;;;;;;;;10341244;28;20518;-62
2022/09/20 02:02:39;;;;;;;1.30;0.50;;;;;;;;;;10351008;28;20452;-62
2022/09/20 02:07:51;;;;;;;2.47;0.68;;;;;;;;;;10358921;28;20045;-63
2022/09/20 02:12:58;;;;;;;2.45;0.50;;;;;;;;;;10349989;28;20120;-63
2022/09/20 02:18:16;;;;;;;4.30;0.50;;;;;;;;;;10354989;28;20056;-61
2022/09/20 02:23:27;;;;;;;3.97;0.75;;;;;;;;;;10355486;28;20432;-61
2022/09/20 02:28:42;;;;;;;10.10;1.25;;;;;;;;;;10344191;28;20059;-62
2022/09/20 02:33:56;;;;;;;2.35;0.70;;;;;;;;;;10352570;28;20092;-62
2022/09/20 02:39:20;;;;;;;2.55;0.60;;;;;;;;;;10349608;28;20077;-62
2022/09/20 02:44:22;;;;;;;6.22;0.82;;;;;;;;;;10349755;28;20129;-63
2022/09/20 02:49:42;;;;;;;2.08;0.70;;;;;;;;;;10345957;28;20055;-62
2022/09/20 02:55:05;;;;;;;1.15;0.88;;;;;;;;;;10349758;28;20154;-62
2022/09/20 03:00:13;;;;;;;3.80;0.50;;;;;;;;;;10346023;28;20077;-62
2022/09/20 03:05:25;;;;;;;1.63;0.60;;;;;;;;;;10353230;28;20053;-63
2022/09/20 03:10:31;;;;;;;3.80;0.60;;;;;;;;;;10341551;28;20058;-62
2022/09/20 03:15:53;;;;;;;2.42;0.40;;;;;;;;;;10365042;28;20137;-63
2022/09/20 03:20:59;;;;;;;7.78;0.93;;;;;;;;;;10357923;28;20054;-62
2022/09/20 03:26:20;;;;;;;4.05;0.63;;;;;;;;;;10363697;28;20598;-63
2022/09/20 03:31:22;;;;;;;9.30;0.85;;;;;;;;;;10359481;28;20048;-63
2022/09/20 03:36:33;;;;;;;2.30;0.50;;;;;;;;;;10351400;28;20417;-61
2022/09/20 03:41:52;;;;;;;1.45;0.20;;;;;;;;;;10352898;28;20132;-61
2022/09/20 03:47:07;;;;;;;10.48;0.40;;;;;;;;;;10355855;28;20134;-62
2022/09/20 03:52:10;;;;;;;4.35;0.38;;;;;;;;;;10358151;28;20132;-62
2022/09/20 03:57:12;;;;;;;6.15;0.50;;;;;;;;;;10356214;28;20045;-62
2022/09/20 04:02:33;;;;;;;3.90;1.17;;;;;;;;;;10353174;28;20042;-64
2022/09/20 04:07:44;;;;;;;4.13;0.30;;;;;;;;;;10359879;28;20053;-64
2022/09/20 04:12:55;;;;;;;3.22;0.38;;;;;;;;;;10356853;28;20179;-63
2022/09/20 04:17:57;;;;;;;7.85;0.50;;;;;;;;;;10349732;28;20073;-62
2022/09/20 04:23:04;;;;;;;2.90;0.40;;;;;;;;;;10359679;28;20073;-62
2022/09/20 04:28:36;;;;;;;2.05;0.30;;;;;;;;;;10350529;28;20145;-62
2022/09/20 04:33:42;;;;;;;4.47;0.55;;;;;;;;;;10335984;28;20073;-62
2022/09/20 04:38:48;;;;;;;3.03;0.60;;;;;;;;;;10348338;28;20129;-62
2022/09/20 04:43:52;;;;;;;7.95;0.60;;;;;;;;;;10360449;28;20053;-63
2022/09/20 04:49:06;;;;;;;7.38;0.60;;;;;;;;;;10351366;28;20120;-63
2022/09/20 04:54:33;;;;;;;4.82;0.85;;;;;;;;;;10346864;28;20046;-64
2022/09/20 04:59:57;;;;;;;4.07;0.95;;;;;;;;;;10353515;28;20050;-62
2022/09/20 05:05:26;;;;;;;3.67;0.82;;;;;;;;;;10342421;28;20825;-62
2022/09/20 05:10:32;;;;;;;5.72;1.17;;;;;;;;;;10345491;28;20144;-69
2022/09/20 05:15:53;;;;;;;10.63;1.20;;;;;;;;;;10351488;28;20061;-69
2022/09/20 05:20:55;;;;;;;6.53;1.08;;;;;;;;;;10339622;28;20120;-69
2022/09/20 05:26:16;;;;;;;10.52;1.00;;;;;;;;;;10347254;28;20050;-70
2022/09/20 05:31:30;;;;;;;5.65;1.10;;;;;;;;;;10355518;28;20096;-71
2022/09/20 05:36:58;;;;;;;6.68;1.10;;;;;;;;;;10340737;28;20124;-72
2022/09/20 05:42:19;;;;;;;6.45;0.77;;;;;;;;;;10331876;28;20085;-68
2022/09/20 05:47:24;;;;;;;5.28;1.08;;;;;;;;;;10349280;28;20691;-71
2022/09/20 05:52:45;;;;;;;6.93;1.05;;;;;;;;;;10337608;28;20132;-70
2022/09/20 05:57:55;;;;;;;10.05;1.17;;;;;;;;;;10345641;28;20125;-69
2022/09/20 06:03:12;;;;;;;15.98;1.42;;;;;;;;;;10347631;28;20065;-67
2022/09/20 06:08:33;;;;;;;5.50;1.40;;;;;;;;;;10337017;28;20901;-69
2022/09/20 06:13:52;;;;;;;13.13;1.90;;;;;;;;;;10352097;28;20057;-68
2022/09/20 06:19:06;;;;;;;14.98;1.63;;;;;;;;;;10335090;28;20058;-69
2022/09/20 06:24:38;;;;;;;8.35;1.13;;;;;;;;;;10348817;28;20046;-71
2022/09/20 06:29:42;;;;;;;4.38;1.85;;;;;;;;;;10340121;28;20054;-68
2022/09/20 06:34:45;;;;;;;5.65;1.48;;;;;;;;;;10350015;28;20141;-72
2022/09/20 06:45:37;;;;;;;7.20;1.42;;;;;;;;;;10351002;28;20049;-67
2022/09/20 06:50:42;;;;;;;4.68;1.55;;;;;;;;;;10358813;28;20061;-69
2022/09/20 06:55:44;;;;;;;4.10;1.92;;;;;;;;;;10354609;28;20567;-69
2022/09/20 07:00:47;;;;;;;7.00;1.90;;;;;;;;;;10339789;28;20076;-71
2022/09/20 07:05:49;;;;;;;8.85;1.55;;;;;;;;;;10355556;28;20547;-73
2022/09/20 07:10:51;;;;;;;4.82;1.65;;;;;;;;;;10343325;28;20528;-71
2022/09/20 07:15:59;;;;;;;6.85;1.08;;;;;;;;;;10351737;28;20045;-71
2022/09/20 07:21:01;;;;;;;6.72;2.50;;;;;;;;;;10355654;28;20124;-71
2022/09/20 07:26:03;;;;;;;5.75;2.15;;;;;;;;;;10357529;28;20064;-71
2022/09/20 07:31:05;;;;;;;4.68;1.40;;;;;;;;;;10347314;28;20508;-70
2022/09/20 07:36:07;;;;;;;6.32;1.23;;;;;;;;;;10354884;28;20103;-71
2022/09/20 07:41:10;;;;;;;7.20;1.63;;;;;;;;;;10345506;28;20050;-71
2022/09/20 07:46:12;;;;;;;1.70;0.90;;;;;;;;;;10356716;28;20120;-71
2022/09/20 07:51:14;;;;;;;5.60;0.77;;;;;;;;;;10344285;28;20070;-71
2022/09/20 07:56:17;;;;;;;4.43;0.77;;;;;;;;;;10350118;28;20097;-72
2022/09/20 08:01:20;;;;;;;5.50;0.93;;;;;;;;;;10344551;28;20053;-69
2022/09/20 08:06:23;;;;;;;5.22;0.68;;;;;;;;;;10342167;28;20056;-70
2022/09/20 08:11:27;;;;;;;10.68;1.02;;;;;;;;;;10357309;28;20054;-71
2022/09/20 08:16:30;;;;;;;4.97;0.50;;;;;;;;;;10358768;28;20053;-71
2022/09/20 08:21:33;;;;;;;2.58;0.50;;;;;;;;;;10346211;28;20062;-71
2022/09/20 08:26:35;;;;;;;2.88;0.75;;;;;;;;;;10349791;28;20153;-68
2022/09/20 08:31:39;;;;;;;5.28;0.43;;;;;;;;;;10352284;28;20141;-71
2022/09/20 08:36:45;;;;;;;5.60;0.30;;;;;;;;;;10354539;28;20053;-70
2022/09/20 08:41:50;;;;;;;2.38;0.47;;;;;;;;;;10342534;28;20133;-70
2022/09/20 08:47:05;;;;;;;2.30;0.50;;;;;;;;;;10353033;28;20564;-71
2022/09/20 08:52:10;;;;;;;2.60;0.50;;;;;;;;;;10349011;28;20054;-70
2022/09/20 08:57:16;;;;;;;2.33;0.35;;;;;;;;;;10352343;28;20072;-70
2022/09/20 09:02:20;;;;;;;3.95;0.40;;;;;;;;;;10343333;28;20531;-69
2022/09/20 09:07:23;;;;;;;2.97;0.50;;;;;;;;;;10350343;28;20499;-72
2022/09/20 09:12:27;;;;;;;5.78;0.40;;;;;;;;;;10349659;28;20080;-71
2022/09/20 09:17:29;;;;;;;4.15;0.40;;;;;;;;;;10357840;28;20125;-70
2022/09/20 09:22:36;;;;;;;2.92;0.68;;;;;;;;;;10351731;28;20046;-71
2022/09/20 09:27:50;;;;;;;0.60;0.30;;;;;;;;;;10357128;28;20105;-68
2022/09/20 09:32:52;;;;;;;4.90;0.60;;;;;;;;;;10354834;28;20121;-71
2022/09/20 09:37:59;;;;;;;3.47;0.40;;;;;;;;;;10326902;28;20048;-72
2022/09/20 09:43:03;;;;;;;1.40;0.50;;;;;;;;;;10347332;28;20054;-71
2022/09/20 09:48:25;;;;;;;1.40;0.30;;;;;;;;;;10348949;28;20523;-69
2022/09/20 09:53:27;;;;;;;4.07;0.43;;;;;;;;;;10342038;28;20180;-70
2022/09/20 09:58:29;;;;;;;3.92;0.50;;;;;;;;;;10346752;28;20152;-69
2022/09/20 10:03:36;;;;;;;3.42;0.50;;;;;;;;;;10352094;28;20069;-71
2022/09/20 10:08:48;;;;;;;1.60;0.73;;;;;;;;;;10354366;28;20045;-71
2022/09/20 10:13:50;;;;;;;2.15;0.40;;;;;;;;;;10358284;28;20450;-72
2022/09/20 10:18:52;;;;;;;2.35;0.63;;;;;;;;;;10354666;28;20081;-67
2022/09/20 10:24:01;;;;;;;2.38;0.20;;;;;;;;;;10347485;28;20104;-70
2022/09/20 10:29:14;;;;;;;2.58;0.60;;;;;;;;;;10347683;28;20077;-71
2022/09/20 10:34:27;;;;;;;4.50;0.43;;;;;;;;;;10348928;28;20439;-70
2022/09/20 10:39:32;;;;;;;2.05;0.30;;;;;;;;;;10346614;28;20136;-70
2022/09/20 10:44:50;;;;;;;1.83;0.50;;;;;;;;;;10343841;28;20108;-69
2022/09/20 10:50:28;;;;;;;1.67;0.30;;;;;;;;;;10345052;28;20076;-72
2022/09/20 10:55:44;;;;;;;2.55;0.38;;;;;;;;;;10271779;28;20136;-70
2022/09/20 11:00:56;;;;;;;6.70;0.35;;;;;;;;;;10343242;28;20045;-71
2022/09/20 11:06:01;;;;;;;8.45;0.40;;;;;;;;;;10336172;28;20053;-69
2022/09/20 11:11:11;;;;;;;1.30;0.20;;;;;;;;;;10346901;28;20053;-70
2022/09/20 11:16:17;;;;;;;2.03;0.10;;;;;;;;;;10346879;28;20037;-69
2022/09/20 11:21:27;;;;;;;2.42;0.30;;;;;;;;;;10331272;28;20528;-68
2022/09/20 11:26:36;;;;;;;2.45;0.10;;;;;;;;;;10349664;28;20516;-68
2022/09/20 11:31:43;;;;;;;0.40;0.20;;;;;;;;;;10356805;28;20140;-69
2022/09/20 11:36:53;;;;;;;3.13;0.20;;;;;;;;;;10360864;28;20054;-70
2022/09/20 11:41:56;;;;;;;1.20;0.10;;;;;;;;;;10354746;28;20060;-70
2022/09/20 11:47:01;;;;;;;1.92;0.22;;;;;;;;;;10352870;28;20515;-69
2022/09/20 11:52:03;;;;;;;1.67;0.10;;;;;;;;;;10354947;28;20120;-72
2022/09/20 11:57:07;;;;;;;0.65;0.10;;;;;;;;;;10358593;28;20073;-72
2022/09/20 12:02:20;;;;;;;1.27;0.22;;;;;;;;;;10360265;28;20160;-71
2022/09/20 12:07:28;;;;;;;1.98;0.20;;;;;;;;;;10344507;28;20065;-71
2022/09/20 12:12:36;;;;;;;3.50;0.15;;;;;;;;;;10354383;28;20133;-72
2022/09/20 12:17:48;;;;;;;2.17;0.22;;;;;;;;;;10349872;28;20038;-68
2022/09/20 12:22:50;;;;;;;3.80;0.30;;;;;;;;;;10363766;28;20507;-68
2022/09/20 12:27:52;;;;;;;3.00;0.38;;;;;;;;;;10358206;28;20117;-70
2022/09/20 12:32:56;;;;;;;0.88;0.20;;;;;;;;;;10366157;28;20041;-70
2022/09/20 12:38:15;;;;;;;6.75;0.40;;;;;;;;;;10356005;28;20132;-69
2022/09/20 12:43:20;;;;;;;0.70;0.20;;;;;;;;;;10374427;28;20514;-68
2022/09/20 12:48:22;;;;;;;2.15;0.30;;;;;;;;;;10390103;28;20048;-69
2022/09/20 12:53:24;;;;;;;2.28;0.30;;;;;;;;;;10376084;28;20065;-66
2022/09/20 12:58:38;;;;;;;0.80;0.30;;;;;;;;;;10373613;28;20132;-68
2022/09/20 13:03:41;;;;;;;1.70;0.30;;;;;;;;;;10368795;28;20077;-67
2022/09/20 13:08:49;;;;;;;7.43;0.68;;;;;;;;;;10346478;28;20065;-68
2022/09/20 13:13:56;;;;;;;3.80;0.40;;;;;;;;;;10381052;28;20055;-67
2022/09/20 13:18:58;;;;;;;;;;;;;;;;;;10366404;28;20041;-67
2022/09/20 13:24:01;;;;;;;5.15;0.40;;;;;;;;;;10371430;28;19929;-67
2022/09/20 13:29:03;;;;;;;0.57;0.40;;;;;;;;;;10356286;28;20046;-68
2022/09/20 13:34:12;;;;;;;3.25;0.30;;;;;;;;;;10366679;28;20060;-65
2022/09/20 13:39:26;;;;;;;3.35;0.30;;;;;;;;;;10371598;28;25575;-66
2022/09/20 13:44:31;;;;;;;1.70;0.30;;;;;;;;;;10379216;28;20089;-67
2022/09/20 13:49:33;;;;;;;1.90;0.30;;;;;;;;;;10364991;28;20100;-68
2022/09/20 13:54:35;;;;;;;1.70;0.20;;;;;;;;;;10368340;28;20053;-66
2022/09/20 13:59:43;;;;;;;1.08;0.30;;;;;;;;;;10361105;28;20125;-68
2022/09/20 14:04:46;;;;;;;1.42;0.30;;;;;;;;;;10369520;28;20057;-68
2022/09/20 14:09:49;;;;;;;1.80;0.30;;;;;;;;;;10376375;28;20070;-68
2022/09/20 14:14:52;;;;;;;3.13;0.75;;;;;;;;;;10362980;28;20104;-68
2022/09/20 14:19:54;;;;;;;3.30;0.20;;;;;;;;;;10358593;28;20072;-67
2022/09/20 14:25:05;;;;;;;2.35;0.28;;;;;;;;;;10365443;28;20469;-68
2022/09/20 14:30:27;;;;;;;0.20;0.10;;;;;;;;;;10376052;28;20412;-66
2022/09/20 14:35:30;;;;;;;1.60;0.20;;;;;;;;;;10373467;28;20088;-68
2022/09/20 14:40:40;;;;;;;0.68;0.20;;;;;;;;;;10372908;28;20554;-68
2022/09/20 14:45:42;;;;;;;0.80;0.13;;;;;;;;;;10363692;28;20072;-68
2022/09/20 14:50:45;;;;;;;0.47;0.10;;;;;;;;;;10369331;28;20073;-66
2022/09/20 14:55:55;;;;;;;2.40;0.20;;;;;;;;;;10374272;28;20045;-69
2022/09/20 15:00:58;;;;;;;1.52;0.22;;;;;;;;;;10365343;28;20042;-66
2022/09/20 15:06:00;;;;;;;2.22;0.10;;;;;;;;;;10374795;28;20053;-67
2022/09/20 15:11:02;;;;;;;3.30;0.20;;;;;;;;;;10381703;28;20499;-66
2022/09/20 15:16:04;;;;;;;3.60;0.30;;;;;;;;;;10371212;28;20077;-68
2022/09/20 15:21:07;;;;;;;1.85;0.10;;;;;;;;;;10373589;28;20050;-68
2022/09/20 15:26:10;;;;;;;0.57;0.15;;;;;;;;;;10387456;28;20054;-69
2022/09/20 15:31:13;;;;;;;1.95;0.32;;;;;;;;;;10379608;28;20033;-66
2022/09/20 15:36:16;;;;;;;0.65;0.10;;;;;;;;;;10393341;28;20053;-67
2022/09/20 15:41:20;;;;;;;3.05;0.20;;;;;;;;;;10395558;28;20042;-64
2022/09/20 15:46:25;;;;;;;1.98;0.17;;;;;;;;;;10389688;28;20073;-67
2022/09/20 15:51:29;;;;;;;0.63;0.10;;;;;;;;;;10378080;28;20042;-66
2022/09/20 15:56:33;;;;;;;2.95;0.40;;;;;;;;;;10382359;28;20046;-68
2022/09/20 16:01:36;;;;;;;0.10;0.10;;;;;;;;;;10382373;28;20050;-67
2022/09/20 16:06:39;;;;;;;1.60;0.10;;;;;;;;;;10390445;28;20054;-66
2022/09/20 16:11:42;;;;;;;1.95;0.20;;;;;;;;;;10371186;28;20057;-67
2022/09/20 16:16:44;;;;;;;1.55;0.10;;;;;;;;;;10366149;28;20049;-69
2022/09/20 16:21:52;;;;;;;0.20;0.10;;;;;;;;;;10386829;28;20063;-67
2022/09/20 16:27:00;;;;;;;3.10;0.20;;;;;;;;;;10397977;28;20537;-68
2022/09/20 16:32:03;;;;;;;0.30;0.10;;;;;;;;;;10390388;28;20049;-66
2022/09/20 16:37:15;;;;;;;1.90;0.20;;;;;;;;;;10372880;28;20080;-69
2022/09/20 16:42:17;;;;;;;0.52;0.20;;;;;;;;;;10368814;28;20042;-66
2022/09/20 16:47:21;;;;;;;1.50;0.20;;;;;;;;;;10372275;28;20053;-70
2022/09/20 16:52:25;;;;;;;0.70;0.20;;;;;;;;;;10325279;28;20060;-71
2022/09/20 16:57:27;;;;;;;2.47;0.20;;;;;;;;;;10346118;28;20143;-69
2022/09/20 17:02:29;;;;;;;0.45;0.00;;;;;;;;;;10346394;28;20038;-71
2022/09/20 17:07:32;;;;;;;3.15;0.45;;;;;;;;;;10349824;28;20042;-71
2022/09/20 17:12:40;;;;;;;1.25;0.30;;;;;;;;;;10345835;28;20129;-69
2022/09/20 17:17:42;;;;;;;3.00;0.30;;;;;;;;;;10340367;28;20127;-68
2022/09/20 17:22:44;;;;;;;1.15;0.22;;;;;;;;;;10344497;28;20556;-69
2022/09/20 17:27:46;;;;;;;0.47;0.20;;;;;;;;;;10343597;28;20101;-67
2022/09/20 17:32:49;;;;;;;0.55;0.20;;;;;;;;;;10359717;28;20138;-68
2022/09/20 17:37:51;;;;;;;0.60;0.20;;;;;;;;;;10348134;28;20627;-69
2022/09/20 17:42:54;;;;;;;1.48;0.75;;;;;;;;;;10342945;28;20057;-69
2022/09/20 17:47:57;;;;;;;1.08;0.30;;;;;;;;;;10353065;28;20145;-70
2022/09/20 17:52:59;;;;;;;0.35;0.20;;;;;;;;;;10351391;28;20089;-69
2022/09/20 17:58:01;;;;;;;3.58;0.30;;;;;;;;;;10342120;28;20073;-70
2022/09/20 18:03:03;;;;;;;2.63;0.30;;;;;;;;;;10351463;28;20128;-70
2022/09/20 18:08:06;;;;;;;0.82;0.20;;;;;;;;;;10357645;28;20112;-70
2022/09/20 18:13:08;;;;;;;0.52;0.20;;;;;;;;;;10342055;28;20514;-69
2022/09/20 18:18:10;;;;;;;1.15;0.20;;;;;;;;;;10358717;28;20053;-70
2022/09/20 18:23:12;;;;;;;3.25;0.50;;;;;;;;;;10347623;28;20073;-69
2022/09/20 18:28:16;;;;;;;0.43;0.28;;;;;;;;;;10347918;28;20475;-70
2022/09/20 18:33:18;;;;;;;0.85;0.47;;;;;;;;;;10339943;28;20717;-70
2022/09/20 18:38:20;;;;;;;2.20;1.05;;;;;;;;;;10352795;28;20053;-69
2022/09/20 18:43:23;;;;;;;4.22;0.50;;;;;;;;;;10347965;28;20249;-69
2022/09/20 18:48:26;;;;;;;0.85;0.40;;;;;;;;;;10351301;28;20407;-70
2022/09/20 18:53:29;;;;;;;2.50;0.50;;;;;;;;;;10349409;28;20129;-70
2022/09/20 18:58:31;;;;;;;0.55;0.20;;;;;;;;;;10344209;28;20053;-69
2022/09/20 19:03:52;;;;;;;3.05;0.30;;;;;;;;;;10346627;28;20150;-67
2022/09/20 19:09:05;;;;;;;1.27;0.40;;;;;;;;;;10346997;28;20042;-70
2022/09/20 19:14:12;;;;;;;1.05;0.30;;;;;;;;;;10350671;28;20050;-70
2022/09/20 19:19:21;;;;;;;1.90;0.38;;;;;;;;;;10348052;28;20124;-67
2022/09/20 19:24:41;;;;;;;0.90;0.20;;;;;;;;;;10327814;28;20487;-69
2022/09/20 19:29:44;;;;;;;2.83;0.35;;;;;;;;;;10349524;28;20145;-69
2022/09/20 19:34:50;;;;;;;2.08;0.30;;;;;;;;;;10353678;28;20659;-69
2022/09/20 19:40:31;;;;;;;0.45;0.20;;;;;;;;;;10344041;28;20100;-70
2022/09/20 19:45:41;;;;;;;1.00;0.30;;;;;;;;;;10210279;28;20051;-70
2022/09/20 19:50:45;;;;;;;1.65;0.10;;;;;;;;;;10330209;28;20042;-70
2022/09/20 19:55:49;;;;;;;3.42;0.20;;;;;;;;;;10339970;28;20451;-69
2022/09/20 20:00:52;;;;;;;2.20;0.13;;;;;;;;;;10343365;28;20054;-67
2022/09/20 20:06:03;;;;;;;0.47;0.20;;;;;;;;;;10356314;28;20081;-69
2022/09/20 20:11:15;;;;;;;1.58;0.30;;;;;;;;;;10335371;28;20060;-68
2022/09/20 20:16:20;;;;;;;3.03;0.28;;;;;;;;;;10356212;28;20133;-70
2022/09/20 20:21:25;;;;;;;2.70;0.40;;;;;;;;;;10348457;28;20061;-69
2022/09/20 20:26:28;;;;;;;2.13;0.50;;;;;;;;;;10345177;28;20744;-71
2022/09/20 20:31:30;;;;;;;2.35;0.40;;;;;;;;;;10334862;28;20048;-70
2022/09/20 20:36:35;;;;;;;1.58;0.50;;;;;;;;;;10342695;28;20077;-68
2022/09/20 20:41:39;;;;;;;3.95;0.80;;;;;;;;;;10335950;28;20168;-64
2022/09/20 20:46:41;;;;;;;1.23;0.30;;;;;;;;;;10348574;28;20064;-64
2022/09/20 20:51:44;;;;;;;1.58;0.30;;;;;;;;;;10334775;28;20495;-64
2022/09/20 20:56:46;;;;;;;3.00;0.47;;;;;;;;;;10340554;28;20156;-64
2022/09/20 21:01:48;;;;;;;4.53;0.43;;;;;;;;;;10346934;28;20132;-65
2022/09/20 21:06:51;;;;;;;1.05;0.63;;;;;;;;;;10349567;28;20133;-65
2022/09/20 21:11:53;;;;;;;1.85;0.40;;;;;;;;;;10355195;28;20112;-64
2022/09/20 21:16:56;;;;;;;3.28;0.50;;;;;;;;;;10344787;28;20046;-65
2022/09/20 21:21:58;;;;;;;2.40;0.85;;;;;;;;;;10337870;28;20037;-64
2022/09/20 21:27:03;;;;;;;2.45;0.60;;;;;;;;;;10352203;28;20068;-63
2022/09/20 21:32:06;;;;;;;3.38;0.80;;;;;;;;;;10343455;28;20041;-63
2022/09/20 21:37:09;;;;;;;4.18;1.20;;;;;;;;;;10348502;28;20057;-64
2022/09/20 21:42:12;;;;;;;3.55;0.50;;;;;;;;;;10350464;28;20054;-65
2022/09/20 21:47:18;;;;;;;2.40;0.70;;;;;;;;;;10340763;28;20077;-64
2022/09/20 21:52:21;;;;;;;0.70;0.40;;;;;;;;;;10345762;28;20053;-64
2022/09/20 21:57:23;;;;;;;1.52;0.68;;;;;;;;;;10346122;28;20132;-64
2022/09/20 22:02:25;;;;;;;1.60;0.55;;;;;;;;;;10348978;28;20048;-64
2022/09/20 22:07:27;;;;;;;0.93;0.40;;;;;;;;;;10347403;28;20088;-64
2022/09/20 22:12:29;;;;;;;1.15;0.50;;;;;;;;;;10361355;28;20045;-64
2022/09/20 22:17:31;;;;;;;4.50;0.60;;;;;;;;;;10356645;28;20697;-65
2022/09/20 22:22:33;;;;;;;4.20;0.90;;;;;;;;;;10346298;28;20078;-65
2022/09/20 22:27:35;;;;;;;4.30;0.80;;;;;;;;;;10352635;28;20176;-64
2022/09/20 22:32:37;;;;;;;1.75;0.88;;;;;;;;;;10356157;28;20072;-64
2022/09/20 22:37:39;;;;;;;4.65;0.88;;;;;;;;;;10345762;28;20144;-65
2022/09/20 22:42:41;;;;;;;5.00;0.70;;;;;;;;;;10347512;28;20105;-64
2022/09/20 22:47:43;;;;;;;1.33;0.70;;;;;;;;;;10354517;28;20407;-63
2022/09/20 22:52:45;;;;;;;2.47;0.70;;;;;;;;;;10340346;28;20049;-64
2022/09/20 22:57:51;;;;;;;4.07;0.73;;;;;;;;;;10342091;28;20540;-64
2022/09/20 23:02:59;;;;;;;8.68;1.40;;;;;;;;;;10352504;28;20042;-64
2022/09/20 23:08:01;;;;;;;15.35;2.60;;;;;;;;;;10336293;28;20146;-65
2022/09/20 23:13:03;;;;;;;14.05;1.80;;;;;;;;;;10352472;28;20085;-65
2022/09/20 23:18:05;;;;;;;7.88;1.10;;;;;;;;;;10352479;28;20068;-65
2022/09/20 23:23:08;;;;;;;2.70;0.80;;;;;;;;;;10345628;28;20569;-64
2022/09/20 23:28:10;;;;;;;1.50;0.50;;;;;;;;;;10355093;28;20054;-65
2022/09/20 23:33:12;;;;;;;2.47;0.52;;;;;;;;;;10355644;28;20112;-63
2022/09/20 23:38:14;;;;;;;4.38;0.82;;;;;;;;;;10349614;28;20441;-64
2022/09/20 23:43:16;;;;;;;1.60;0.63;;;;;;;;;;10359489;28;20045;-64
2022/09/20 23:48:18;;;;;;;2.03;0.60;;;;;;;;;;10354891;28;20052;-63
2022/09/20 23:53:20;;;;;;;1.10;0.70;;;;;;;;;;10350804;28;20077;-63
2022/09/20 23:58:22;;;;;;;3.80;0.75;;;;;;;;;;10348615;28;20133;-63
